sensor_id;sensor_type;location;lat;lon;timestamp;temperature;humidity
65637;DHT22;52327;42.622;23.316;2024-02-15T00:01:43;2.89;70.84
65637;DHT22;52327;42.622;23.316;2024-02-15T00:04:08;2.89;70.45
65637;DHT22;52327;42.622;23.316;2024-02-15T00:06:39;2.91;70.21
65637;DHT22;52327;42.622;23.316;2024-02-15T00:09:04;2.86;70.68
65637;DHT22;52327;42.622;23.316;2024-02-15T00:11:30;2.84;71.11
65637;DHT22;52327;42.622;23.316;2024-02-15T00:13:56;2.82;68.96
65637;DHT22;52327;42.622;23.316;2024-02-15T00:16:25;2.94;70.52
65637;DHT22;52327;42.622;23.316;2024-02-15T00:18:53;2.93;70.46
65637;DHT22;52327;42.622;23.316;2024-02-15T00:21:22;2.96;70.15
65637;DHT22;52327;42.622;23.316;2024-02-15T00:23:48;2.93;71.85
65637;DHT22;52327;42.622;23.316;2024-02-15T00:26:14;2.86;68.90
65637;DHT22;52327;42.622;23.316;2024-02-15T00:28:52;2.96;68.75
65637;DHT22;52327;42.622;23.316;2024-02-15T00:31:26;2.91;70.72
65637;DHT22;52327;42.622;23.316;2024-02-15T00:33:58;2.90;70.61
65637;DHT22;52327;42.622;23.316;2024-02-15T00:36:42;3.01;70.02
65637;DHT22;52327;42.622;23.316;2024-02-15T00:39:16;3.08;70.38
65637;DHT22;52327;42.622;23.316;2024-02-15T00:42:00;3.00;70.50
65637;DHT22;52327;42.622;23.316;2024-02-15T00:44:29;3.00;69.97
65637;DHT22;52327;42.622;23.316;2024-02-15T00:46:57;2.96;68.95
65637;DHT22;52327;42.622;23.316;2024-02-15T00:49:22;2.80;69.62
65637;DHT22;52327;42.622;23.316;2024-02-15T00:51:48;2.83;70.89
65637;DHT22;52327;42.622;23.316;2024-02-15T00:54:16;2.94;69.68
65637;DHT22;52327;42.622;23.316;2024-02-15T00:56:45;2.96;69.70
65637;DHT22;52327;42.622;23.316;2024-02-15T00:59:13;2.91;69.23
65637;DHT22;52327;42.622;23.316;2024-02-15T01:01:45;2.86;69.66
65637;DHT22;52327;42.622;23.316;2024-02-15T01:04:35;2.79;70.23
65637;DHT22;52327;42.622;23.316;2024-02-15T01:07:07;2.82;68.89
65637;DHT22;52327;42.622;23.316;2024-02-15T01:09:33;2.96;70.27
65637;DHT22;52327;42.622;23.316;2024-02-15T01:12:05;2.84;69.07
65637;DHT22;52327;42.622;23.316;2024-02-15T01:14:31;2.75;70.34
65637;DHT22;52327;42.622;23.316;2024-02-15T01:17:14;2.70;70.48
65637;DHT22;52327;42.622;23.316;2024-02-15T01:19:41;2.69;70.94
65637;DHT22;52327;42.622;23.316;2024-02-15T01:22:12;2.97;70.08
65637;DHT22;52327;42.622;23.316;2024-02-15T01:24:45;2.76;69.52
65637;DHT22;52327;42.622;23.316;2024-02-15T01:27:22;2.83;70.80
65637;DHT22;52327;42.622;23.316;2024-02-15T01:29:48;2.72;69.52
65637;DHT22;52327;42.622;23.316;2024-02-15T01:32:26;2.73;69.93
65637;DHT22;52327;42.622;23.316;2024-02-15T01:34:57;2.72;70.55
65637;DHT22;52327;42.622;23.316;2024-02-15T01:37:32;2.82;71.78
65637;DHT22;52327;42.622;23.316;2024-02-15T01:40:08;2.86;71.91
65637;DHT22;52327;42.622;23.316;2024-02-15T01:42:37;2.79;69.82
65637;DHT22;52327;42.622;23.316;2024-02-15T01:45:06;2.73;70.22
65637;DHT22;52327;42.622;23.316;2024-02-15T01:47:39;2.79;70.79
65637;DHT22;52327;42.622;23.316;2024-02-15T01:50:10;2.76;71.07
65637;DHT22;52327;42.622;23.316;2024-02-15T01:53:13;2.80;71.22
65637;DHT22;52327;42.622;23.316;2024-02-15T01:55:47;2.77;70.82
65637;DHT22;52327;42.622;23.316;2024-02-15T01:58:13;2.73;70.91
65637;DHT22;52327;42.622;23.316;2024-02-15T02:00:47;2.82;72.06
65637;DHT22;52327;42.622;23.316;2024-02-15T02:03:23;2.86;70.91
65637;DHT22;52327;42.622;23.316;2024-02-15T02:05:58;2.89;70.43
65637;DHT22;52327;42.622;23.316;2024-02-15T02:11:24;2.73;70.49
65637;DHT22;52327;42.622;23.316;2024-02-15T02:13:59;2.72;70.85
65637;DHT22;52327;42.622;23.316;2024-02-15T02:16:30;2.64;70.32
65637;DHT22;52327;42.622;23.316;2024-02-15T02:19:01;2.73;70.71
65637;DHT22;52327;42.622;23.316;2024-02-15T02:21:28;2.66;70.41
65637;DHT22;52327;42.622;23.316;2024-02-15T02:23:57;2.62;71.11
65637;DHT22;52327;42.622;23.316;2024-02-15T02:26:27;2.73;69.91
65637;DHT22;52327;42.622;23.316;2024-02-15T02:28:56;2.83;70.32
65637;DHT22;52327;42.622;23.316;2024-02-15T02:31:23;2.76;69.51
65637;DHT22;52327;42.622;23.316;2024-02-15T02:33:58;2.76;69.51
65637;DHT22;52327;42.622;23.316;2024-02-15T02:36:23;2.75;69.71
65637;DHT22;52327;42.622;23.316;2024-02-15T02:38:54;2.82;68.85
65637;DHT22;52327;42.622;23.316;2024-02-15T02:41:29;2.79;69.18
65637;DHT22;52327;42.622;23.316;2024-02-15T02:43:59;2.80;69.25
65637;DHT22;52327;42.622;23.316;2024-02-15T02:46:30;2.62;70.29
65637;DHT22;52327;42.622;23.316;2024-02-15T02:49:11;2.56;70.29
65637;DHT22;52327;42.622;23.316;2024-02-15T02:52:07;2.60;70.07
65637;DHT22;52327;42.622;23.316;2024-02-15T02:54:36;2.73;69.44
65637;DHT22;52327;42.622;23.316;2024-02-15T02:57:04;2.53;69.56
65637;DHT22;52327;42.622;23.316;2024-02-15T02:59:35;2.43;69.82
65637;DHT22;52327;42.622;23.316;2024-02-15T03:02:01;2.40;70.08
65637;DHT22;52327;42.622;23.316;2024-02-15T03:04:34;2.56;71.29
65637;DHT22;52327;42.622;23.316;2024-02-15T03:07:04;2.52;70.74
65637;DHT22;52327;42.622;23.316;2024-02-15T03:09:43;2.39;70.59
65637;DHT22;52327;42.622;23.316;2024-02-15T03:12:26;2.53;71.90
65637;DHT22;52327;42.622;23.316;2024-02-15T03:14:58;2.54;71.06
65637;DHT22;52327;42.622;23.316;2024-02-15T03:17:32;2.62;71.53
65637;DHT22;52327;42.622;23.316;2024-02-15T03:20:15;2.57;70.74
65637;DHT22;52327;42.622;23.316;2024-02-15T03:22:56;2.50;71.68
65637;DHT22;52327;42.622;23.316;2024-02-15T03:25:29;2.45;71.08
65637;DHT22;52327;42.622;23.316;2024-02-15T03:28:10;2.57;71.76
65637;DHT22;52327;42.622;23.316;2024-02-15T03:31:01;2.54;70.82
65637;DHT22;52327;42.622;23.316;2024-02-15T03:33:29;2.46;70.17
65637;DHT22;52327;42.622;23.316;2024-02-15T03:36:12;2.45;72.15
65637;DHT22;52327;42.622;23.316;2024-02-15T03:38:53;2.53;70.35
65637;DHT22;52327;42.622;23.316;2024-02-15T03:44:06;2.53;71.15
65637;DHT22;52327;42.622;23.316;2024-02-15T03:46:44;2.48;72.22
65637;DHT22;52327;42.622;23.316;2024-02-15T03:49:35;2.49;71.68
65637;DHT22;52327;42.622;23.316;2024-02-15T03:52:13;2.48;73.34
65637;DHT22;52327;42.622;23.316;2024-02-15T03:54:46;2.48;72.45
65637;DHT22;52327;42.622;23.316;2024-02-15T04:00:14;2.43;72.57
65637;DHT22;52327;42.622;23.316;2024-02-15T04:02:48;2.57;70.94
65637;DHT22;52327;42.622;23.316;2024-02-15T04:05:14;2.50;71.23
65637;DHT22;52327;42.622;23.316;2024-02-15T04:07:43;2.32;72.02
65637;DHT22;52327;42.622;23.316;2024-02-15T04:10:20;2.42;71.68
65637;DHT22;52327;42.622;23.316;2024-02-15T04:13:00;2.29;70.00
65637;DHT22;52327;42.622;23.316;2024-02-15T04:18:04;2.28;71.01
65637;DHT22;52327;42.622;23.316;2024-02-15T04:20:35;2.12;72.59
65637;DHT22;52327;42.622;23.316;2024-02-15T04:23:14;2.01;72.02
65637;DHT22;52327;42.622;23.316;2024-02-15T04:25:52;2.17;72.05
65637;DHT22;52327;42.622;23.316;2024-02-15T04:28:23;2.02;73.06
65637;DHT22;52327;42.622;23.316;2024-02-15T04:30:54;2.07;71.94
65637;DHT22;52327;42.622;23.316;2024-02-15T04:33:29;1.99;70.61
65637;DHT22;52327;42.622;23.316;2024-02-15T04:36:09;2.05;72.24
65637;DHT22;52327;42.622;23.316;2024-02-15T04:38:41;1.98;71.86
65637;DHT22;52327;42.622;23.316;2024-02-15T04:41:09;1.90;72.17
65637;DHT22;52327;42.622;23.316;2024-02-15T04:43:35;1.85;71.68
65637;DHT22;52327;42.622;23.316;2024-02-15T04:46:08;1.78;72.45
65637;DHT22;52327;42.622;23.316;2024-02-15T04:48:34;1.78;70.89
65637;DHT22;52327;42.622;23.316;2024-02-15T04:51:00;1.82;71.70
65637;DHT22;52327;42.622;23.316;2024-02-15T04:53:28;1.85;71.14
65637;DHT22;52327;42.622;23.316;2024-02-15T04:56:03;1.94;71.93
65637;DHT22;52327;42.622;23.316;2024-02-15T04:58:40;1.94;71.28
65637;DHT22;52327;42.622;23.316;2024-02-15T05:01:18;1.85;71.20
65637;DHT22;52327;42.622;23.316;2024-02-15T05:03:49;1.88;71.63
65637;DHT22;52327;42.622;23.316;2024-02-15T05:06:15;1.84;71.63
65637;DHT22;52327;42.622;23.316;2024-02-15T05:08:41;1.84;71.46
65637;DHT22;52327;42.622;23.316;2024-02-15T05:11:12;1.88;71.20
65637;DHT22;52327;42.622;23.316;2024-02-15T05:13:46;1.97;70.53
65637;DHT22;52327;42.622;23.316;2024-02-15T05:16:14;1.90;71.00
65637;DHT22;52327;42.622;23.316;2024-02-15T05:18:41;1.97;71.07
65637;DHT22;52327;42.622;23.316;2024-02-15T05:21:07;1.88;70.47
65637;DHT22;52327;42.622;23.316;2024-02-15T05:23:50;1.77;70.78
65637;DHT22;52327;42.622;23.316;2024-02-15T05:26:17;1.87;71.86
65637;DHT22;52327;42.622;23.316;2024-02-15T05:28:49;1.91;69.76
65637;DHT22;52327;42.622;23.316;2024-02-15T05:31:20;1.84;69.83
65637;DHT22;52327;42.622;23.316;2024-02-15T05:33:49;1.88;70.68
65637;DHT22;52327;42.622;23.316;2024-02-15T05:36:20;1.97;70.66
65637;DHT22;52327;42.622;23.316;2024-02-15T05:38:54;1.78;70.63
65637;DHT22;52327;42.622;23.316;2024-02-15T05:41:22;1.77;70.70
65637;DHT22;52327;42.622;23.316;2024-02-15T05:43:48;1.78;71.11
65637;DHT22;52327;42.622;23.316;2024-02-15T05:46:22;1.87;70.51
65637;DHT22;52327;42.622;23.316;2024-02-15T05:48:48;1.93;70.68
65637;DHT22;52327;42.622;23.316;2024-02-15T05:51:17;2.01;71.36
65637;DHT22;52327;42.622;23.316;2024-02-15T05:53:43;2.01;70.79
65637;DHT22;52327;42.622;23.316;2024-02-15T05:56:09;2.02;70.30
65637;DHT22;52327;42.622;23.316;2024-02-15T05:58:37;1.93;71.02
65637;DHT22;52327;42.622;23.316;2024-02-15T06:01:04;1.88;69.59
65637;DHT22;52327;42.622;23.316;2024-02-15T06:03:32;1.91;70.32
65637;DHT22;52327;42.622;23.316;2024-02-15T06:05:59;2.02;69.92
65637;DHT22;52327;42.622;23.316;2024-02-15T06:08:29;2.04;69.75
65637;DHT22;52327;42.622;23.316;2024-02-15T06:10:55;1.97;69.67
65637;DHT22;52327;42.622;23.316;2024-02-15T06:13:22;1.98;70.31
65637;DHT22;52327;42.622;23.316;2024-02-15T06:15:47;2.02;70.14
65637;DHT22;52327;42.622;23.316;2024-02-15T06:18:18;1.91;70.68
65637;DHT22;52327;42.622;23.316;2024-02-15T06:20:47;1.98;69.57
65637;DHT22;52327;42.622;23.316;2024-02-15T06:23:15;2.09;69.83
65637;DHT22;52327;42.622;23.316;2024-02-15T06:25:41;2.17;69.21
65637;DHT22;52327;42.622;23.316;2024-02-15T06:28:06;2.18;70.76
65637;DHT22;52327;42.622;23.316;2024-02-15T06:30:41;2.29;69.80
65637;DHT22;52327;42.622;23.316;2024-02-15T06:33:25;2.14;69.77
65637;DHT22;52327;42.622;23.316;2024-02-15T06:36:09;2.08;69.74
65637;DHT22;52327;42.622;23.316;2024-02-15T06:38:53;1.98;69.93
65637;DHT22;52327;42.622;23.316;2024-02-15T06:41:37;1.98;70.85
65637;DHT22;52327;42.622;23.316;2024-02-15T06:44:02;2.19;72.48
65637;DHT22;52327;42.622;23.316;2024-02-15T06:46:28;2.28;71.32
65637;DHT22;52327;42.622;23.316;2024-02-15T06:48:54;2.46;70.81
65637;DHT22;52327;42.622;23.316;2024-02-15T06:51:19;2.62;70.41
65637;DHT22;52327;42.622;23.316;2024-02-15T06:53:45;2.56;69.66
65637;DHT22;52327;42.622;23.316;2024-02-15T06:56:11;2.57;68.47
65637;DHT22;52327;42.622;23.316;2024-02-15T06:58:37;2.49;67.92
65637;DHT22;52327;42.622;23.316;2024-02-15T07:01:02;2.33;68.98
65637;DHT22;52327;42.622;23.316;2024-02-15T07:03:31;2.48;68.53
65637;DHT22;52327;42.622;23.316;2024-02-15T07:05:57;2.53;68.15
65637;DHT22;52327;42.622;23.316;2024-02-15T07:08:23;2.49;68.46
65637;DHT22;52327;42.622;23.316;2024-02-15T07:10:50;2.35;67.28
65637;DHT22;52327;42.622;23.316;2024-02-15T07:13:17;2.29;68.68
65637;DHT22;52327;42.622;23.316;2024-02-15T07:15:42;2.28;69.04
65637;DHT22;52327;42.622;23.316;2024-02-15T07:18:12;2.28;68.70
65637;DHT22;52327;42.622;23.316;2024-02-15T07:20:41;2.26;67.43
65637;DHT22;52327;42.622;23.316;2024-02-15T07:23:07;2.24;68.12
65637;DHT22;52327;42.622;23.316;2024-02-15T07:25:32;2.33;68.94
65637;DHT22;52327;42.622;23.316;2024-02-15T07:27:57;2.26;67.29
65637;DHT22;52327;42.622;23.316;2024-02-15T07:30:23;2.33;67.52
65637;DHT22;52327;42.622;23.316;2024-02-15T07:32:50;2.32;67.38
65637;DHT22;52327;42.622;23.316;2024-02-15T07:35:15;2.48;69.36
65637;DHT22;52327;42.622;23.316;2024-02-15T07:37:52;2.42;67.12
65637;DHT22;52327;42.622;23.316;2024-02-15T07:40:24;2.48;67.73
65637;DHT22;52327;42.622;23.316;2024-02-15T07:42:56;2.64;68.17
65637;DHT22;52327;42.622;23.316;2024-02-15T07:45:22;2.57;67.45
65637;DHT22;52327;42.622;23.316;2024-02-15T07:47:47;2.60;67.59
65637;DHT22;52327;42.622;23.316;2024-02-15T07:50:17;2.62;68.25
65637;DHT22;52327;42.622;23.316;2024-02-15T07:52:46;2.73;68.15
65637;DHT22;52327;42.622;23.316;2024-02-15T07:55:13;2.77;67.60
65637;DHT22;52327;42.622;23.316;2024-02-15T07:57:38;2.87;68.33
65637;DHT22;52327;42.622;23.316;2024-02-15T08:00:05;3.13;67.15
65637;DHT22;52327;42.622;23.316;2024-02-15T08:02:39;3.15;66.07
65637;DHT22;52327;42.622;23.316;2024-02-15T08:05:09;3.14;65.77
65637;DHT22;52327;42.622;23.316;2024-02-15T08:07:41;3.05;67.02
65637;DHT22;52327;42.622;23.316;2024-02-15T08:10:07;3.03;66.93
65637;DHT22;52327;42.622;23.316;2024-02-15T08:12:44;3.03;66.19
65637;DHT22;52327;42.622;23.316;2024-02-15T08:15:10;3.04;66.89
65637;DHT22;52327;42.622;23.316;2024-02-15T08:17:43;3.18;67.76
65637;DHT22;52327;42.622;23.316;2024-02-15T08:20:11;3.23;66.77
65637;DHT22;52327;42.622;23.316;2024-02-15T08:22:37;3.39;67.81
65637;DHT22;52327;42.622;23.316;2024-02-15T08:25:10;3.24;66.31
65637;DHT22;52327;42.622;23.316;2024-02-15T08:27:39;3.30;66.84
65637;DHT22;52327;42.622;23.316;2024-02-15T08:30:13;3.45;67.08
65637;DHT22;52327;42.622;23.316;2024-02-15T08:32:39;3.51;67.77
65637;DHT22;52327;42.622;23.316;2024-02-15T08:35:07;3.66;65.61
65637;DHT22;52327;42.622;23.316;2024-02-15T08:37:37;3.73;66.40
65637;DHT22;52327;42.622;23.316;2024-02-15T08:40:08;3.83;65.57
65637;DHT22;52327;42.622;23.316;2024-02-15T08:42:40;3.72;66.48
65637;DHT22;52327;42.622;23.316;2024-02-15T08:45:07;3.76;66.59
65637;DHT22;52327;42.622;23.316;2024-02-15T08:47:39;3.83;65.69
65637;DHT22;52327;42.622;23.316;2024-02-15T08:50:06;3.76;67.11
65637;DHT22;52327;42.622;23.316;2024-02-15T08:52:32;3.81;68.02
65637;DHT22;52327;42.622;23.316;2024-02-15T08:54:57;3.75;66.62
65637;DHT22;52327;42.622;23.316;2024-02-15T08:57:24;3.76;66.57
65637;DHT22;52327;42.622;23.316;2024-02-15T08:59:49;3.82;67.19
65637;DHT22;52327;42.622;23.316;2024-02-15T09:02:17;3.68;66.36
65637;DHT22;52327;42.622;23.316;2024-02-15T09:04:43;3.69;66.53
65637;DHT22;52327;42.622;23.316;2024-02-15T09:07:08;3.68;66.51
65637;DHT22;52327;42.622;23.316;2024-02-15T09:09:34;3.78;66.96
65637;DHT22;52327;42.622;23.316;2024-02-15T09:12:03;3.95;67.07
65637;DHT22;52327;42.622;23.316;2024-02-15T09:14:34;4.02;65.86
65637;DHT22;52327;42.622;23.316;2024-02-15T09:17:00;3.87;64.79
65637;DHT22;52327;42.622;23.316;2024-02-15T09:19:26;3.95;65.64
65637;DHT22;52327;42.622;23.316;2024-02-15T09:21:51;4.02;65.88
65637;DHT22;52327;42.622;23.316;2024-02-15T09:24:16;4.02;64.99
65637;DHT22;52327;42.622;23.316;2024-02-15T09:26:42;4.21;64.96
65637;DHT22;52327;42.622;23.316;2024-02-15T09:29:09;4.27;64.13
65637;DHT22;52327;42.622;23.316;2024-02-15T09:31:35;4.21;65.16
65637;DHT22;52327;42.622;23.316;2024-02-15T09:34:01;4.18;65.27
65637;DHT22;52327;42.622;23.316;2024-02-15T09:36:34;4.41;64.61
65637;DHT22;52327;42.622;23.316;2024-02-15T09:38:59;4.37;65.50
65637;DHT22;52327;42.622;23.316;2024-02-15T09:41:24;4.57;64.31
65637;DHT22;52327;42.622;23.316;2024-02-15T09:43:50;4.26;64.97
65637;DHT22;52327;42.622;23.316;2024-02-15T09:46:17;4.18;66.88
65637;DHT22;52327;42.622;23.316;2024-02-15T09:48:46;4.34;66.66
65637;DHT22;52327;42.622;23.316;2024-02-15T09:51:15;4.50;66.25
65637;DHT22;52327;42.622;23.316;2024-02-15T09:53:41;4.58;65.67
65637;DHT22;52327;42.622;23.316;2024-02-15T09:56:07;4.68;65.14
65637;DHT22;52327;42.622;23.316;2024-02-15T09:58:33;4.74;64.65
65637;DHT22;52327;42.622;23.316;2024-02-15T10:01:04;4.75;65.58
65637;DHT22;52327;42.622;23.316;2024-02-15T10:03:37;4.84;64.93
65637;DHT22;52327;42.622;23.316;2024-02-15T10:06:03;4.77;65.70
65637;DHT22;52327;42.622;23.316;2024-02-15T10:08:29;5.00;65.51
65637;DHT22;52327;42.622;23.316;2024-02-15T10:11:10;5.18;65.59
65637;DHT22;52327;42.622;23.316;2024-02-15T10:13:36;5.20;64.88
65637;DHT22;52327;42.622;23.316;2024-02-15T10:18:40;5.19;64.53
65637;DHT22;52327;42.622;23.316;2024-02-15T10:21:06;5.11;65.59
65637;DHT22;52327;42.622;23.316;2024-02-15T10:23:31;5.18;64.27
65637;DHT22;52327;42.622;23.316;2024-02-15T10:25:56;5.25;64.54
65637;DHT22;52327;42.622;23.316;2024-02-15T10:28:23;5.20;66.12
65637;DHT22;52327;42.622;23.316;2024-02-15T10:30:49;5.39;66.56
65637;DHT22;52327;42.622;23.316;2024-02-15T10:33:28;5.54;64.45
65637;DHT22;52327;42.622;23.316;2024-02-15T10:36:07;5.43;64.90
65637;DHT22;52327;42.622;23.316;2024-02-15T10:38:33;5.50;63.81
65637;DHT22;52327;42.622;23.316;2024-02-15T10:41:07;5.63;63.64
65637;DHT22;52327;42.622;23.316;2024-02-15T10:43:37;5.60;63.88
65637;DHT22;52327;42.622;23.316;2024-02-15T10:46:03;5.59;64.25
65637;DHT22;52327;42.622;23.316;2024-02-15T10:48:29;5.70;64.04
65637;DHT22;52327;42.622;23.316;2024-02-15T10:51:03;5.61;63.46
65637;DHT22;52327;42.622;23.316;2024-02-15T10:53:35;5.66;65.22
65637;DHT22;52327;42.622;23.316;2024-02-15T10:56:17;5.63;64.00
65637;DHT22;52327;42.622;23.316;2024-02-15T10:58:50;5.74;63.74
65637;DHT22;52327;42.622;23.316;2024-02-15T11:01:18;5.73;64.27
65637;DHT22;52327;42.622;23.316;2024-02-15T11:03:51;5.83;62.86
65637;DHT22;52327;42.622;23.316;2024-02-15T11:06:20;5.73;63.51
65637;DHT22;52327;42.622;23.316;2024-02-15T11:08:49;6.17;61.90
65637;DHT22;52327;42.622;23.316;2024-02-15T11:11:15;6.11;62.92
65637;DHT22;52327;42.622;23.316;2024-02-15T11:13:40;6.07;62.47
65637;DHT22;52327;42.622;23.316;2024-02-15T11:16:07;6.32;62.39
65637;DHT22;52327;42.622;23.316;2024-02-15T11:18:49;6.41;61.54
65637;DHT22;52327;42.622;23.316;2024-02-15T11:21:56;6.14;61.12
65637;DHT22;52327;42.622;23.316;2024-02-15T11:24:28;6.17;62.27
65637;DHT22;52327;42.622;23.316;2024-02-15T11:27:04;6.31;61.54
65637;DHT22;52327;42.622;23.316;2024-02-15T11:29:59;6.55;60.70
65637;DHT22;52327;42.622;23.316;2024-02-15T11:32:45;6.52;60.48
65637;DHT22;52327;42.622;23.316;2024-02-15T11:35:25;6.36;61.07
65637;DHT22;52327;42.622;23.316;2024-02-15T11:37:59;6.31;60.71
65637;DHT22;52327;42.622;23.316;2024-02-15T11:46:14;6.59;61.63
65637;DHT22;52327;42.622;23.316;2024-02-15T11:51:36;6.76;61.94
65637;DHT22;52327;42.622;23.316;2024-02-15T11:54:11;6.93;60.89
65637;DHT22;52327;42.622;23.316;2024-02-15T11:56:51;6.94;59.31
65637;DHT22;52327;42.622;23.316;2024-02-15T11:59:19;6.89;59.75
65637;DHT22;52327;42.622;23.316;2024-02-15T12:01:57;6.55;60.54
65637;DHT22;52327;42.622;23.316;2024-02-15T12:04:42;6.71;60.47
65637;DHT22;52327;42.622;23.316;2024-02-15T12:07:27;7.04;59.51
65637;DHT22;52327;42.622;23.316;2024-02-15T12:10:18;7.34;59.55
65637;DHT22;52327;42.622;23.316;2024-02-15T12:13:03;7.15;58.30
65637;DHT22;52327;42.622;23.316;2024-02-15T12:15:59;6.87;59.46
65637;DHT22;52327;42.622;23.316;2024-02-15T12:18:44;7.35;60.10
65637;DHT22;52327;42.622;23.316;2024-02-15T12:21:15;7.51;60.45
65637;DHT22;52327;42.622;23.316;2024-02-15T12:23:41;7.66;59.30
65637;DHT22;52327;42.622;23.316;2024-02-15T12:26:07;7.93;56.39
65637;DHT22;52327;42.622;23.316;2024-02-15T12:28:33;7.78;56.83
65637;DHT22;52327;42.622;23.316;2024-02-15T12:31:01;7.96;56.60
65637;DHT22;52327;42.622;23.316;2024-02-15T12:33:27;7.85;56.40
65637;DHT22;52327;42.622;23.316;2024-02-15T12:36:03;7.74;57.53
65637;DHT22;52327;42.622;23.316;2024-02-15T12:38:30;7.89;57.95
65637;DHT22;52327;42.622;23.316;2024-02-15T12:40:56;8.14;57.97
65637;DHT22;52327;42.622;23.316;2024-02-15T12:43:22;7.95;56.57
65637;DHT22;52327;42.622;23.316;2024-02-15T12:45:47;7.85;57.36
65637;DHT22;52327;42.622;23.316;2024-02-15T12:48:13;8.07;56.00
65637;DHT22;52327;42.622;23.316;2024-02-15T12:50:40;8.05;57.45
65637;DHT22;52327;42.622;23.316;2024-02-15T12:53:06;7.76;56.79
65637;DHT22;52327;42.622;23.316;2024-02-15T12:55:34;8.06;55.35
65637;DHT22;52327;42.622;23.316;2024-02-15T12:58:12;8.13;57.75
65637;DHT22;52327;42.622;23.316;2024-02-15T13:00:40;8.27;57.13
65637;DHT22;52327;42.622;23.316;2024-02-15T13:03:07;8.38;55.83
65637;DHT22;52327;42.622;23.316;2024-02-15T13:05:35;8.14;54.94
65637;DHT22;52327;42.622;23.316;2024-02-15T13:08:04;7.78;56.90
65637;DHT22;52327;42.622;23.316;2024-02-15T13:10:35;7.88;57.44
65637;DHT22;52327;42.622;23.316;2024-02-15T13:13:00;7.95;58.83
65637;DHT22;52327;42.622;23.316;2024-02-15T13:15:26;8.05;57.51
65637;DHT22;52327;42.622;23.316;2024-02-15T13:17:55;8.09;55.57
65637;DHT22;52327;42.622;23.316;2024-02-15T13:20:24;8.19;58.62
65637;DHT22;52327;42.622;23.316;2024-02-15T13:22:57;8.22;56.53
65637;DHT22;52327;42.622;23.316;2024-02-15T13:25:31;8.06;57.11
65637;DHT22;52327;42.622;23.316;2024-02-15T13:27:57;7.88;56.10
65637;DHT22;52327;42.622;23.316;2024-02-15T13:30:23;7.74;58.25
65637;DHT22;52327;42.622;23.316;2024-02-15T13:32:52;7.74;56.47
65637;DHT22;52327;42.622;23.316;2024-02-15T13:35:19;7.79;57.13
65637;DHT22;52327;42.622;23.316;2024-02-15T13:37:52;7.97;56.39
65637;DHT22;52327;42.622;23.316;2024-02-15T13:40:21;7.96;57.20
65637;DHT22;52327;42.622;23.316;2024-02-15T13:42:51;7.97;57.23
65637;DHT22;52327;42.622;23.316;2024-02-15T13:45:24;7.93;59.05
65637;DHT22;52327;42.622;23.316;2024-02-15T13:47:56;8.07;56.48
65637;DHT22;52327;42.622;23.316;2024-02-15T13:50:22;8.46;55.22
65637;DHT22;52327;42.622;23.316;2024-02-15T13:52:51;8.60;56.54
65637;DHT22;52327;42.622;23.316;2024-02-15T13:55:17;8.36;56.25
65637;DHT22;52327;42.622;23.316;2024-02-15T13:57:45;8.30;56.40
65637;DHT22;52327;42.622;23.316;2024-02-15T14:00:14;8.23;55.63
65637;DHT22;52327;42.622;23.316;2024-02-15T14:02:47;8.12;57.04
65637;DHT22;52327;42.622;23.316;2024-02-15T14:05:13;8.27;57.11
65637;DHT22;52327;42.622;23.316;2024-02-15T14:07:39;8.47;56.34
65637;DHT22;52327;42.622;23.316;2024-02-15T14:10:05;8.57;56.84
65637;DHT22;52327;42.622;23.316;2024-02-15T14:12:32;8.85;58.18
65637;DHT22;52327;42.622;23.316;2024-02-15T14:15:01;8.92;61.18
65637;DHT22;52327;42.622;23.316;2024-02-15T14:17:28;8.97;61.70
65637;DHT22;52327;42.622;23.316;2024-02-15T14:19:53;8.95;57.70
65637;DHT22;52327;42.622;23.316;2024-02-15T14:22:18;8.84;59.26
65637;DHT22;52327;42.622;23.316;2024-02-15T14:24:49;8.70;60.22
65637;DHT22;52327;42.622;23.316;2024-02-15T14:27:14;8.84;58.92
65637;DHT22;52327;42.622;23.316;2024-02-15T14:29:40;8.85;62.11
65637;DHT22;52327;42.622;23.316;2024-02-15T14:32:25;8.88;55.39
65637;DHT22;52327;42.622;23.316;2024-02-15T14:35:09;8.98;55.13
65637;DHT22;52327;42.622;23.316;2024-02-15T14:37:35;8.87;63.13
65637;DHT22;52327;42.622;23.316;2024-02-15T14:40:00;8.77;60.23
65637;DHT22;52327;42.622;23.316;2024-02-15T14:42:25;8.54;60.90
65637;DHT22;52327;42.622;23.316;2024-02-15T14:44:51;8.30;60.49
65637;DHT22;52327;42.622;23.316;2024-02-15T14:47:16;8.23;59.35
65637;DHT22;52327;42.622;23.316;2024-02-15T14:49:43;8.27;62.48
65637;DHT22;52327;42.622;23.316;2024-02-15T14:52:11;8.30;62.96
65637;DHT22;52327;42.622;23.316;2024-02-15T14:54:38;8.26;60.12
65637;DHT22;52327;42.622;23.316;2024-02-15T14:57:04;8.12;60.70
65637;DHT22;52327;42.622;23.316;2024-02-15T14:59:30;8.23;57.21
65637;DHT22;52327;42.622;23.316;2024-02-15T15:01:55;8.23;59.14
65637;DHT22;52327;42.622;23.316;2024-02-15T15:04:22;8.14;61.95
65637;DHT22;52327;42.622;23.316;2024-02-15T15:06:48;8.13;57.94
65637;DHT22;52327;42.622;23.316;2024-02-15T15:09:32;8.00;62.89
65637;DHT22;52327;42.622;23.316;2024-02-15T15:12:16;7.96;58.28
65637;DHT22;52327;42.622;23.316;2024-02-15T15:15:00;8.00;62.58
65637;DHT22;52327;42.622;23.316;2024-02-15T15:17:25;8.02;64.79
65637;DHT22;52327;42.622;23.316;2024-02-15T15:19:52;8.14;59.37
65637;DHT22;52327;42.622;23.316;2024-02-15T15:22:17;8.13;62.78
65637;DHT22;52327;42.622;23.316;2024-02-15T15:24:45;8.17;62.48
65637;DHT22;52327;42.622;23.316;2024-02-15T15:27:10;8.22;59.62
65637;DHT22;52327;42.622;23.316;2024-02-15T15:29:37;8.19;62.29
65637;DHT22;52327;42.622;23.316;2024-02-15T15:32:03;7.89;61.17
65637;DHT22;52327;42.622;23.316;2024-02-15T15:34:28;7.72;63.08
65637;DHT22;52327;42.622;23.316;2024-02-15T15:36:55;7.65;59.84
65637;DHT22;52327;42.622;23.316;2024-02-15T15:39:22;7.58;65.75
65637;DHT22;52327;42.622;23.316;2024-02-15T15:41:50;7.50;65.44
65637;DHT22;52327;42.622;23.316;2024-02-15T15:44:15;7.54;65.11
65637;DHT22;52327;42.622;23.316;2024-02-15T15:46:41;7.56;64.67
65637;DHT22;52327;42.622;23.316;2024-02-15T15:49:07;7.56;64.84
65637;DHT22;52327;42.622;23.316;2024-02-15T15:51:33;7.65;59.25
65637;DHT22;52327;42.622;23.316;2024-02-15T15:53:58;7.69;61.96
65637;DHT22;52327;42.622;23.316;2024-02-15T15:56:24;7.64;64.85
65637;DHT22;52327;42.622;23.316;2024-02-15T15:58:49;7.55;66.17
65637;DHT22;52327;42.622;23.316;2024-02-15T16:01:15;7.54;65.80
65637;DHT22;52327;42.622;23.316;2024-02-15T16:03:40;7.32;65.55
65637;DHT22;52327;42.622;23.316;2024-02-15T16:06:06;7.27;64.85
65637;DHT22;52327;42.622;23.316;2024-02-15T16:08:35;7.30;65.00
65637;DHT22;52327;42.622;23.316;2024-02-15T16:11:01;7.25;64.38
65637;DHT22;52327;42.622;23.316;2024-02-15T16:13:26;7.21;64.47